Time;durP1;ratioP1;P1;durP2;ratioP2;P2;SDS_P1;SDS_P2;PMS_P1;PMS_P2;Temp;Humidity;BMP_temperature;BMP_pressure;BME280_temperature;BME280_humidity;BME280_pressure;Samples;Min_cycle;Max_cycle;Signal;HPM_P1;HPM_P2
2023/06/04 00:00:06;;;;;;;14.25;13.45;;;;;;;;;;4991559;28;20026;-65
2023/06/04 00:02:32;;;;;;;14.10;13.30;;;;;;;;;;4989273;28;20101;-65
2023/06/04 00:04:57;;;;;;;15.80;14.80;;;;;;;;;;4991666;28;20608;-64
2023/06/04 00:07:22;;;;;;;15.40;14.50;;;;;;;;;;4993825;28;20429;-65
2023/06/04 00:09:48;;;;;;;14.88;14.07;;;;;;;;;;4991807;28;20029;-64
2023/06/04 00:12:13;;;;;;;15.80;14.90;;;;;;;;;;4993035;28;20018;-66
2023/06/04 00:14:39;;;;;;;14.90;14.10;;;;;;;;;;4993921;28;20118;-65
2023/06/04 00:17:04;;;;;;;15.90;14.90;;;;;;;;;;4988051;28;20022;-65
2023/06/04 00:19:30;;;;;;;15.40;14.55;;;;;;;;;;4987786;28;20037;-65
2023/06/04 00:21:55;;;;;;;16.02;15.05;;;;;;;;;;4991872;28;20034;-64
2023/06/04 00:24:20;;;;;;;16.50;15.50;;;;;;;;;;4990761;28;20033;-65
2023/06/04 00:26:46;;;;;;;16.13;15.15;;;;;;;;;;4988585;28;20118;-64
2023/06/04 00:29:11;;;;;;;16.58;15.55;;;;;;;;;;4992612;28;20026;-65
2023/06/04 00:31:36;;;;;;;14.90;14.15;;;;;;;;;;4994132;28;20030;-64
2023/06/04 00:34:03;;;;;;;17.35;16.17;;;;;;;;;;4989920;28;20070;-65
2023/06/04 00:36:29;;;;;;;15.80;14.90;;;;;;;;;;4993556;28;20027;-65
2023/06/04 00:38:54;;;;;;;15.02;14.23;;;;;;;;;;4991000;28;20109;-65
2023/06/04 00:41:20;;;;;;;16.70;15.60;;;;;;;;;;4992611;28;20050;-65
2023/06/04 00:43:45;;;;;;;16.60;15.50;;;;;;;;;;4989988;28;20022;-65
2023/06/04 00:46:17;;;;;;;14.55;13.75;;;;;;;;;;4981400;28;20019;-65
2023/06/04 00:48:43;;;;;;;14.88;14.05;;;;;;;;;;4977825;28;20037;-65
2023/06/04 00:51:08;;;;;;;15.10;14.23;;;;;;;;;;4981907;28;20101;-66
2023/06/04 00:53:33;;;;;;;15.05;14.23;;;;;;;;;;4990000;28;20473;-66
2023/06/04 00:55:59;;;;;;;15.30;14.40;;;;;;;;;;4993166;28;20105;-65
2023/06/04 00:58:25;;;;;;;15.55;14.65;;;;;;;;;;4992227;28;20097;-65
2023/06/04 01:00:53;;;;;;;15.00;14.20;;;;;;;;;;4988631;28;20026;-65
2023/06/04 01:03:19;;;;;;;15.57;14.68;;;;;;;;;;4984504;28;20057;-65
2023/06/04 01:05:51;;;;;;;14.60;13.80;;;;;;;;;;4984579;28;20031;-65
2023/06/04 01:08:18;;;;;;;15.50;14.60;;;;;;;;;;4988503;28;20030;-64
2023/06/04 01:10:53;;;;;;;14.65;13.85;;;;;;;;;;4989543;28;20014;-64
2023/06/04 01:13:18;;;;;;;16.38;15.30;;;;;;;;;;4991676;28;20472;-64
2023/06/04 01:15:43;;;;;;;15.55;14.60;;;;;;;;;;4987813;28;20113;-64
2023/06/04 01:18:09;;;;;;;14.30;13.60;;;;;;;;;;4992341;28;20125;-65
2023/06/04 01:20:37;;;;;;;14.15;13.45;;;;;;;;;;4985790;28;20054;-65
2023/06/04 01:23:19;;;;;;;14.80;14.00;;;;;;;;;;4983840;28;20065;-64
2023/06/04 01:25:49;;;;;;;14.98;14.15;;;;;;;;;;4992295;28;20062;-64
2023/06/04 01:28:15;;;;;;;15.48;14.57;;;;;;;;;;4987173;28;20026;-65
2023/06/04 01:30:43;;;;;;;15.25;14.35;;;;;;;;;;4990211;28;20034;-64
2023/06/04 01:33:08;;;;;;;17.00;15.90;;;;;;;;;;4985583;28;20023;-64
2023/06/04 01:35:34;;;;;;;16.08;15.18;;;;;;;;;;4991189;28;20072;-65
2023/06/04 01:37:59;;;;;;;15.77;14.85;;;;;;;;;;4990487;28;20034;-66
2023/06/04 01:40:26;;;;;;;16.30;15.30;;;;;;;;;;4990947;28;20022;-65
2023/06/04 01:42:51;;;;;;;16.23;15.23;;;;;;;;;;4990954;28;20074;-65
2023/06/04 01:45:16;;;;;;;16.00;15.00;;;;;;;;;;4991479;28;20030;-64
2023/06/04 01:47:42;;;;;;;15.93;14.93;;;;;;;;;;4990067;28;20034;-64
2023/06/04 01:50:12;;;;;;;15.25;14.43;;;;;;;;;;4987075;28;20015;-64
2023/06/04 01:52:38;;;;;;;15.43;14.52;;;;;;;;;;4985208;28;20061;-66
2023/06/04 01:55:04;;;;;;;15.40;14.50;;;;;;;;;;4991334;28;20101;-64
2023/06/04 01:57:30;;;;;;;16.67;15.55;;;;;;;;;;4988746;28;20093;-65
2023/06/04 01:59:55;;;;;;;14.70;13.90;;;;;;;;;;4989252;28;20026;-64
2023/06/04 02:02:20;;;;;;;15.60;14.70;;;;;;;;;;4990600;28;20022;-65
2023/06/04 02:04:46;;;;;;;15.30;14.40;;;;;;;;;;4991616;28;20022;-65
2023/06/04 02:07:17;;;;;;;14.90;14.05;;;;;;;;;;4990665;28;20029;-65
2023/06/04 02:09:42;;;;;;;15.35;14.40;;;;;;;;;;4988993;28;20042;-64
2023/06/04 02:12:08;;;;;;;14.85;14.00;;;;;;;;;;4988794;28;20061;-65
2023/06/04 02:14:33;;;;;;;14.32;13.52;;;;;;;;;;4989916;28;20030;-64
2023/06/04 02:16:58;;;;;;;15.05;14.15;;;;;;;;;;4994831;28;20618;-64
2023/06/04 02:19:25;;;;;;;15.55;14.55;;;;;;;;;;4983668;28;20076;-65
2023/06/04 02:21:51;;;;;;;14.70;13.80;;;;;;;;;;4988264;28;20113;-65
2023/06/04 02:24:16;;;;;;;14.05;13.27;;;;;;;;;;4988761;28;20110;-64
2023/06/04 02:26:41;;;;;;;14.88;13.98;;;;;;;;;;4988504;28;20023;-65
2023/06/04 02:29:07;;;;;;;13.95;13.20;;;;;;;;;;4990441;28;20436;-64
2023/06/04 02:31:32;;;;;;;13.95;13.25;;;;;;;;;;4989314;28;20018;-64
2023/06/04 02:33:57;;;;;;;14.15;13.35;;;;;;;;;;4989258;28;20105;-64
2023/06/04 02:36:22;;;;;;;14.65;13.85;;;;;;;;;;4989837;28;20064;-64
2023/06/04 02:38:51;;;;;;;15.70;14.70;;;;;;;;;;4988795;28;20478;-64
2023/06/04 02:41:16;;;;;;;15.00;14.10;;;;;;;;;;4983542;28;20039;-65
2023/06/04 02:43:41;;;;;;;14.02;13.23;;;;;;;;;;4989176;28;20026;-65
2023/06/04 02:46:06;;;;;;;14.35;13.55;;;;;;;;;;4983496;28;20034;-65
2023/06/04 02:48:33;;;;;;;13.07;12.38;;;;;;;;;;4989413;28;20380;-65
2023/06/04 02:50:58;;;;;;;13.90;13.10;;;;;;;;;;4989017;28;20105;-65
2023/06/04 02:53:25;;;;;;;14.43;13.60;;;;;;;;;;4989037;28;20422;-64
2023/06/04 02:55:53;;;;;;;13.35;12.65;;;;;;;;;;4982199;28;20072;-65
2023/06/04 02:58:19;;;;;;;13.48;12.77;;;;;;;;;;4989089;28;20019;-65
2023/06/04 03:00:45;;;;;;;13.30;12.60;;;;;;;;;;4987392;28;20080;-66
2023/06/04 03:03:10;;;;;;;13.80;13.07;;;;;;;;;;4990225;28;20481;-65
2023/06/04 03:05:36;;;;;;;14.00;13.25;;;;;;;;;;4979302;28;20108;-66
2023/06/04 03:08:03;;;;;;;13.80;13.10;;;;;;;;;;4987245;28;20445;-65
2023/06/04 03:10:31;;;;;;;13.52;12.82;;;;;;;;;;4989621;28;20026;-65
2023/06/04 03:12:56;;;;;;;14.77;13.98;;;;;;;;;;4981927;28;20100;-64
2023/06/04 03:15:21;;;;;;;13.98;13.25;;;;;;;;;;4989958;28;20034;-65
2023/06/04 03:17:46;;;;;;;14.93;14.05;;;;;;;;;;4992439;28;20025;-65
2023/06/04 03:20:12;;;;;;;13.85;13.15;;;;;;;;;;4986381;28;20482;-66
2023/06/04 03:22:37;;;;;;;14.27;13.52;;;;;;;;;;4988867;28;20041;-66
2023/06/04 03:25:03;;;;;;;13.27;12.68;;;;;;;;;;4991191;28;20527;-66
2023/06/04 03:27:28;;;;;;;13.55;12.85;;;;;;;;;;4988855;28;20042;-65
2023/06/04 03:29:53;;;;;;;13.55;12.85;;;;;;;;;;4991238;28;20095;-65
2023/06/04 03:32:19;;;;;;;13.32;12.70;;;;;;;;;;4992099;28;20373;-65
2023/06/04 03:34:44;;;;;;;13.60;12.90;;;;;;;;;;4993172;28;20027;-66
2023/06/04 03:37:09;;;;;;;13.73;13.02;;;;;;;;;;4992971;28;20032;-65
2023/06/04 03:39:35;;;;;;;13.95;13.25;;;;;;;;;;4989392;28;20672;-66
2023/06/04 03:42:00;;;;;;;13.65;12.95;;;;;;;;;;4990472;28;20045;-65
2023/06/04 03:44:25;;;;;;;13.50;12.80;;;;;;;;;;4990260;28;20030;-65
2023/06/04 03:46:51;;;;;;;13.75;13.05;;;;;;;;;;4973790;28;20023;-65
2023/06/04 03:49:19;;;;;;;13.80;13.10;;;;;;;;;;4993692;28;20026;-65
2023/06/04 03:51:44;;;;;;;13.55;12.88;;;;;;;;;;4990298;28;20430;-65
2023/06/04 03:54:11;;;;;;;13.70;13.00;;;;;;;;;;4988538;28;20118;-65
2023/06/04 03:56:37;;;;;;;12.75;12.15;;;;;;;;;;4991124;28;20037;-65
2023/06/04 03:59:02;;;;;;;12.80;12.20;;;;;;;;;;4985656;28;20022;-65
2023/06/04 04:01:28;;;;;;;13.57;12.90;;;;;;;;;;4985121;28;20034;-65
2023/06/04 04:03:53;;;;;;;13.43;12.82;;;;;;;;;;4991244;28;20026;-65
2023/06/04 04:06:19;;;;;;;13.65;13.00;;;;;;;;;;4991221;28;20027;-65
2023/06/04 04:08:45;;;;;;;13.60;12.95;;;;;;;;;;4992772;28;20046;-64
2023/06/04 04:11:13;;;;;;;13.20;12.60;;;;;;;;;;4987609;28;20042;-64
2023/06/04 04:13:39;;;;;;;13.13;12.52;;;;;;;;;;4992922;28;20023;-65
2023/06/04 04:16:04;;;;;;;12.77;12.18;;;;;;;;;;4980957;28;20037;-66
2023/06/04 04:18:33;;;;;;;12.80;12.20;;;;;;;;;;4989649;28;20084;-64
2023/06/04 04:20:59;;;;;;;12.82;12.23;;;;;;;;;;4991169;28;20026;-65
2023/06/04 04:23:25;;;;;;;13.40;12.80;;;;;;;;;;4981169;28;20039;-65
2023/06/04 04:25:50;;;;;;;12.63;12.02;;;;;;;;;;4993515;28;20389;-65
2023/06/04 04:28:17;;;;;;;12.90;12.30;;;;;;;;;;4984314;28;20031;-65
2023/06/04 04:30:42;;;;;;;12.32;11.77;;;;;;;;;;4992285;28;20019;-65
2023/06/04 04:33:08;;;;;;;12.13;11.63;;;;;;;;;;4988554;28;20053;-65
2023/06/04 04:35:34;;;;;;;12.05;11.55;;;;;;;;;;4993981;28;20022;-65
2023/06/04 04:38:03;;;;;;;12.40;11.80;;;;;;;;;;4992479;28;20022;-65
2023/06/04 04:40:28;;;;;;;12.55;11.95;;;;;;;;;;4991495;28;20034;-66
2023/06/04 04:42:53;;;;;;;13.10;12.50;;;;;;;;;;4989446;28;20488;-66
2023/06/04 04:45:19;;;;;;;12.00;11.50;;;;;;;;;;4992755;28;20030;-66
2023/06/04 04:47:44;;;;;;;12.38;11.80;;;;;;;;;;4990714;28;20397;-65
2023/06/04 04:50:10;;;;;;;12.63;12.03;;;;;;;;;;4991595;28;20516;-66
2023/06/04 04:52:35;;;;;;;12.70;12.10;;;;;;;;;;4987628;28;20358;-66
2023/06/04 04:55:00;;;;;;;12.10;11.60;;;;;;;;;;4988746;28;20022;-65
2023/06/04 04:57:26;;;;;;;11.70;11.20;;;;;;;;;;4993589;28;20320;-65
2023/06/04 04:59:51;;;;;;;12.00;11.50;;;;;;;;;;4991250;28;20119;-66
2023/06/04 05:02:16;;;;;;;11.98;11.48;;;;;;;;;;4988403;28;20046;-65
2023/06/04 05:04:42;;;;;;;11.90;11.40;;;;;;;;;;4987023;28;20140;-66
2023/06/04 05:07:07;;;;;;;12.20;11.70;;;;;;;;;;4984658;28;20557;-66
2023/06/04 05:09:32;;;;;;;11.93;11.43;;;;;;;;;;4990403;28;20023;-66
2023/06/04 05:11:58;;;;;;;12.00;11.50;;;;;;;;;;4980802;28;20756;-64
2023/06/04 05:14:23;;;;;;;12.10;11.60;;;;;;;;;;4987679;28;20118;-66
2023/06/04 05:16:50;;;;;;;11.95;11.45;;;;;;;;;;4990125;28;21086;-66
2023/06/04 05:19:16;;;;;;;12.82;12.23;;;;;;;;;;4991821;28;20019;-66
2023/06/04 05:21:43;;;;;;;12.65;12.05;;;;;;;;;;4988521;28;20019;-66
2023/06/04 05:24:09;;;;;;;11.82;11.32;;;;;;;;;;4987164;28;20524;-66
2023/06/04 05:26:34;;;;;;;12.50;11.90;;;;;;;;;;4989767;28;20034;-65
2023/06/04 05:28:59;;;;;;;12.10;11.60;;;;;;;;;;4990520;28;20026;-64
2023/06/04 05:31:26;;;;;;;12.10;11.60;;;;;;;;;;4992213;28;20022;-65
2023/06/04 05:33:52;;;;;;;12.10;11.60;;;;;;;;;;4989600;28;20069;-64
2023/06/04 05:36:17;;;;;;;12.27;11.77;;;;;;;;;;4983682;28;20030;-64
2023/06/04 05:38:42;;;;;;;12.45;11.85;;;;;;;;;;4990761;28;20030;-64
2023/06/04 05:41:08;;;;;;;12.30;11.80;;;;;;;;;;4991067;28;20030;-63
2023/06/04 05:43:33;;;;;;;12.13;11.63;;;;;;;;;;4989899;28;20276;-65
2023/06/04 05:45:58;;;;;;;11.90;11.40;;;;;;;;;;4984456;28;20122;-64
2023/06/04 05:48:24;;;;;;;12.18;11.68;;;;;;;;;;4994476;28;20300;-63
2023/06/04 05:50:50;;;;;;;12.50;11.90;;;;;;;;;;4987503;28;20044;-63
2023/06/04 05:53:16;;;;;;;11.90;11.40;;;;;;;;;;4986573;28;20049;-65
2023/06/04 05:55:41;;;;;;;11.80;11.30;;;;;;;;;;4990245;28;20034;-65
2023/06/04 05:58:06;;;;;;;11.67;11.17;;;;;;;;;;4988515;28;20442;-65
2023/06/04 06:00:32;;;;;;;11.50;11.00;;;;;;;;;;4988470;28;20268;-65
2023/06/04 06:02:57;;;;;;;12.02;11.52;;;;;;;;;;4991819;28;20362;-64
2023/06/04 06:05:22;;;;;;;12.53;11.93;;;;;;;;;;4981217;28;20101;-65
2023/06/04 06:07:47;;;;;;;12.33;11.80;;;;;;;;;;4985453;28;20465;-64
2023/06/04 06:10:13;;;;;;;12.45;11.85;;;;;;;;;;4985529;28;20271;-64
2023/06/04 06:12:38;;;;;;;12.95;12.35;;;;;;;;;;4988316;28;20078;-63
2023/06/04 06:15:04;;;;;;;11.88;11.38;;;;;;;;;;4990778;28;20578;-64
2023/06/04 06:17:30;;;;;;;12.07;11.57;;;;;;;;;;4987874;28;20658;-64
2023/06/04 06:19:55;;;;;;;12.00;11.50;;;;;;;;;;4990155;28;20030;-64
2023/06/04 06:22:21;;;;;;;12.10;11.60;;;;;;;;;;4990088;28;20405;-64
2023/06/04 06:24:48;;;;;;;12.13;11.63;;;;;;;;;;4984673;28;20049;-64
2023/06/04 06:27:13;;;;;;;12.00;11.50;;;;;;;;;;4981869;28;20027;-64
2023/06/04 06:29:40;;;;;;;12.20;11.70;;;;;;;;;;4986410;28;20025;-65
2023/06/04 06:32:06;;;;;;;12.20;11.70;;;;;;;;;;4982786;28;20081;-64
2023/06/04 06:34:32;;;;;;;12.60;12.00;;;;;;;;;;4987945;28;20026;-64
2023/06/04 06:36:57;;;;;;;13.68;13.07;;;;;;;;;;4983673;28;20018;-66
2023/06/04 06:39:23;;;;;;;12.67;12.07;;;;;;;;;;4982381;28;20023;-65
2023/06/04 06:41:48;;;;;;;12.60;12.00;;;;;;;;;;4987123;28;20327;-65
2023/06/04 06:44:14;;;;;;;12.88;12.27;;;;;;;;;;4990272;28;20465;-64
2023/06/04 06:46:39;;;;;;;13.10;12.50;;;;;;;;;;4987432;28;20388;-65
2023/06/04 06:49:04;;;;;;;12.50;11.90;;;;;;;;;;4987752;28;20022;-64
2023/06/04 06:51:30;;;;;;;12.60;12.00;;;;;;;;;;4981181;28;20033;-66
2023/06/04 06:53:56;;;;;;;13.00;12.40;;;;;;;;;;4987932;28;20062;-65
2023/06/04 06:56:22;;;;;;;12.75;12.15;;;;;;;;;;4981809;28;21312;-64
2023/06/04 06:58:47;;;;;;;12.80;12.20;;;;;;;;;;4987263;28;20052;-65
2023/06/04 07:01:13;;;;;;;13.00;12.40;;;;;;;;;;4987119;28;20456;-65
2023/06/04 07:03:39;;;;;;;12.75;12.15;;;;;;;;;;4985549;28;20069;-66
2023/06/04 07:06:05;;;;;;;12.65;12.05;;;;;;;;;;4987109;28;20030;-65
2023/06/04 07:08:31;;;;;;;12.85;12.25;;;;;;;;;;4984695;28;20057;-66
2023/06/04 07:10:56;;;;;;;12.88;12.27;;;;;;;;;;4986926;28;20085;-64
2023/06/04 07:13:22;;;;;;;12.82;12.23;;;;;;;;;;4983370;28;20089;-64
2023/06/04 07:15:48;;;;;;;12.55;11.95;;;;;;;;;;4987909;28;20051;-64
2023/06/04 07:18:13;;;;;;;12.52;11.93;;;;;;;;;;4990715;28;20026;-64
2023/06/04 07:20:38;;;;;;;12.48;11.88;;;;;;;;;;4990601;28;20033;-65
2023/06/04 07:23:04;;;;;;;13.10;12.50;;;;;;;;;;4981869;28;20069;-65
2023/06/04 07:25:29;;;;;;;12.70;12.10;;;;;;;;;;4986358;28;20037;-64
2023/06/04 07:27:57;;;;;;;13.55;12.93;;;;;;;;;;4983367;28;20034;-64
2023/06/04 07:30:23;;;;;;;13.27;12.68;;;;;;;;;;4979924;28;20409;-64
2023/06/04 07:32:49;;;;;;;13.13;12.52;;;;;;;;;;4984870;28;20041;-64
2023/06/04 07:35:15;;;;;;;13.40;12.80;;;;;;;;;;4983769;28;20474;-64
2023/06/04 07:37:44;;;;;;;14.00;13.30;;;;;;;;;;4985426;28;20126;-64
2023/06/04 07:40:09;;;;;;;13.60;12.90;;;;;;;;;;4982137;28;20029;-65
2023/06/04 07:42:35;;;;;;;12.40;11.80;;;;;;;;;;4987226;28;20544;-64
2023/06/04 07:45:01;;;;;;;13.55;12.85;;;;;;;;;;4982280;28;20062;-64
2023/06/04 07:47:27;;;;;;;13.55;12.85;;;;;;;;;;4989187;28;20026;-64
2023/06/04 07:49:52;;;;;;;13.77;13.07;;;;;;;;;;4985479;28;20077;-65
2023/06/04 07:52:18;;;;;;;14.52;13.73;;;;;;;;;;4987198;28;20031;-64
2023/06/04 07:54:43;;;;;;;13.70;13.00;;;;;;;;;;4988138;28;20528;-64
2023/06/04 07:57:08;;;;;;;13.15;12.50;;;;;;;;;;4984022;28;20042;-65
2023/06/04 07:59:34;;;;;;;13.85;13.15;;;;;;;;;;4984849;28;20061;-64
2023/06/04 08:01:59;;;;;;;13.40;12.70;;;;;;;;;;4985563;28;20134;-64
2023/06/04 08:04:25;;;;;;;14.25;13.50;;;;;;;;;;4988734;28;20106;-65
2023/06/04 08:06:52;;;;;;;14.25;13.48;;;;;;;;;;4987386;28;20547;-64
2023/06/04 08:09:18;;;;;;;13.95;13.25;;;;;;;;;;4987037;28;20374;-65
2023/06/04 08:11:44;;;;;;;13.82;13.13;;;;;;;;;;4989672;28;20023;-65
2023/06/04 08:14:10;;;;;;;13.15;12.45;;;;;;;;;;4988777;28;20072;-64
2023/06/04 08:16:35;;;;;;;12.77;12.18;;;;;;;;;;4989863;28;20110;-64
2023/06/04 08:19:01;;;;;;;12.90;12.30;;;;;;;;;;4990159;28;20118;-64
2023/06/04 08:21:26;;;;;;;13.95;13.25;;;;;;;;;;4992220;28;20031;-64
2023/06/04 08:23:52;;;;;;;14.25;13.45;;;;;;;;;;4983578;28;20049;-64
2023/06/04 08:26:19;;;;;;;13.48;12.77;;;;;;;;;;4986705;28;20023;-64
2023/06/04 08:28:44;;;;;;;13.75;13.05;;;;;;;;;;4988379;28;20034;-65
2023/06/04 08:31:10;;;;;;;13.40;12.70;;;;;;;;;;4989276;28;20030;-63
2023/06/04 08:33:35;;;;;;;13.57;12.88;;;;;;;;;;4985078;28;20474;-65
2023/06/04 08:36:01;;;;;;;13.48;12.77;;;;;;;;;;4993814;28;20041;-63
2023/06/04 08:38:26;;;;;;;13.00;12.38;;;;;;;;;;4989228;28;20029;-65
2023/06/04 08:40:52;;;;;;;12.90;12.30;;;;;;;;;;4988628;28;20105;-64
2023/06/04 08:43:18;;;;;;;12.95;12.32;;;;;;;;;;4989473;28;20037;-65
2023/06/04 08:45:48;;;;;;;12.63;12.02;;;;;;;;;;4988569;28;20049;-65
2023/06/04 08:48:14;;;;;;;13.05;12.40;;;;;;;;;;4985950;28;20057;-65
2023/06/04 08:50:42;;;;;;;13.20;12.55;;;;;;;;;;4992817;28;20029;-65
2023/06/04 08:53:08;;;;;;;12.43;11.82;;;;;;;;;;4986707;28;20030;-64
2023/06/04 08:55:34;;;;;;;12.60;12.00;;;;;;;;;;4984298;28;20108;-66
2023/06/04 08:58:08;;;;;;;14.57;13.77;;;;;;;;;;4987968;28;20111;-66
2023/06/04 09:00:33;;;;;;;13.10;12.45;;;;;;;;;;4989883;28;20169;-66
2023/06/04 09:03:01;;;;;;;13.48;12.77;;;;;;;;;;4989736;28;20042;-67
2023/06/04 09:05:26;;;;;;;13.10;12.45;;;;;;;;;;4987688;28;20026;-67
2023/06/04 09:07:53;;;;;;;13.13;12.45;;;;;;;;;;4991465;28;20014;-65
2023/06/04 09:10:21;;;;;;;13.52;12.82;;;;;;;;;;4988977;28;20050;-68
2023/06/04 09:12:47;;;;;;;13.93;13.23;;;;;;;;;;4989424;28;20030;-66
2023/06/04 09:15:13;;;;;;;12.88;12.25;;;;;;;;;;4990579;28;20508;-67
2023/06/04 09:17:38;;;;;;;12.40;11.80;;;;;;;;;;4993839;28;20026;-66
2023/06/04 09:20:05;;;;;;;12.68;12.07;;;;;;;;;;4991085;28;20033;-66
2023/06/04 09:22:34;;;;;;;13.30;12.60;;;;;;;;;;4989431;28;20030;-66
2023/06/04 09:25:03;;;;;;;13.65;12.95;;;;;;;;;;4985723;28;20030;-66
2023/06/04 09:27:37;;;;;;;13.05;12.43;;;;;;;;;;4987855;28;20015;-66
2023/06/04 09:30:04;;;;;;;12.70;12.10;;;;;;;;;;4987368;28;20033;-66
2023/06/04 09:32:30;;;;;;;13.80;13.10;;;;;;;;;;4990739;28;20026;-65
2023/06/04 09:34:57;;;;;;;13.15;12.45;;;;;;;;;;4985915;28;20029;-65
2023/06/04 09:37:22;;;;;;;13.20;12.50;;;;;;;;;;4984997;28;20739;-65
2023/06/04 09:39:57;;;;;;;13.02;12.43;;;;;;;;;;4988106;28;20034;-66
2023/06/04 09:42:23;;;;;;;13.20;12.50;;;;;;;;;;4991124;28;20503;-65
2023/06/04 09:44:48;;;;;;;13.57;12.88;;;;;;;;;;4991206;28;20049;-67
2023/06/04 09:47:14;;;;;;;12.98;12.38;;;;;;;;;;4990577;28;20014;-65
2023/06/04 09:49:42;;;;;;;12.90;12.30;;;;;;;;;;4983660;28;20022;-65
2023/06/04 09:52:08;;;;;;;11.95;11.43;;;;;;;;;;4985933;28;20500;-62
2023/06/04 09:54:37;;;;;;;12.30;11.70;;;;;;;;;;4989024;28;20105;-64
2023/06/04 09:57:04;;;;;;;12.38;11.77;;;;;;;;;;4984832;28;20034;-63
2023/06/04 09:59:30;;;;;;;12.90;12.30;;;;;;;;;;4989427;28;20057;-64
2023/06/04 10:01:56;;;;;;;12.60;12.00;;;;;;;;;;4988538;28;20030;-65
2023/06/04 10:04:21;;;;;;;12.93;12.30;;;;;;;;;;4987399;28;20029;-64
2023/06/04 10:06:47;;;;;;;13.18;12.48;;;;;;;;;;4984694;28;20030;-64
2023/06/04 10:09:13;;;;;;;12.50;11.90;;;;;;;;;;4990359;28;20097;-64
2023/06/04 10:11:46;;;;;;;12.48;11.88;;;;;;;;;;4990401;28;20027;-63
2023/06/04 10:14:21;;;;;;;12.57;11.98;;;;;;;;;;4990003;28;20101;-62
2023/06/04 10:16:47;;;;;;;13.75;13.05;;;;;;;;;;4988571;28;20473;-64
2023/06/04 10:19:12;;;;;;;13.02;12.40;;;;;;;;;;4987334;28;20032;-64
2023/06/04 10:21:38;;;;;;;12.63;12.02;;;;;;;;;;4988520;28;20042;-63
2023/06/04 10:24:03;;;;;;;13.60;12.90;;;;;;;;;;4987316;28;20564;-65
2023/06/04 10:26:30;;;;;;;13.20;12.50;;;;;;;;;;4991256;28;20433;-64
2023/06/04 10:28:56;;;;;;;12.38;11.77;;;;;;;;;;4989582;28;20034;-63
2023/06/04 10:31:22;;;;;;;12.77;12.18;;;;;;;;;;4991154;28;20019;-64
2023/06/04 10:33:47;;;;;;;12.48;11.88;;;;;;;;;;4991739;28;20098;-63
2023/06/04 10:36:18;;;;;;;12.70;12.10;;;;;;;;;;4989747;28;20037;-63
2023/06/04 10:38:53;;;;;;;13.00;12.35;;;;;;;;;;4989640;28;20030;-64
2023/06/04 10:41:19;;;;;;;12.68;12.07;;;;;;;;;;4992740;28;20512;-65
2023/06/04 10:43:51;;;;;;;13.00;12.35;;;;;;;;;;4987740;28;20041;-64
2023/06/04 10:46:18;;;;;;;12.65;12.05;;;;;;;;;;4988656;28;20408;-63
2023/06/04 10:48:48;;;;;;;12.48;11.88;;;;;;;;;;4984897;28;20026;-64
2023/06/04 10:51:13;;;;;;;13.23;12.52;;;;;;;;;;4987227;28;20026;-63
2023/06/04 10:53:38;;;;;;;12.40;11.80;;;;;;;;;;4988960;28;20134;-63
2023/06/04 10:56:04;;;;;;;12.55;11.95;;;;;;;;;;4987351;28;20084;-64
2023/06/04 10:58:33;;;;;;;12.68;12.07;;;;;;;;;;4985991;28;20077;-64
2023/06/04 11:00:58;;;;;;;12.90;12.30;;;;;;;;;;4987718;28;20426;-64
2023/06/04 11:03:34;;;;;;;13.30;12.60;;;;;;;;;;4988093;28;20064;-64
2023/06/04 11:06:00;;;;;;;13.30;12.60;;;;;;;;;;4985688;28;20034;-64
2023/06/04 11:08:30;;;;;;;13.60;12.90;;;;;;;;;;4982627;28;20038;-64
2023/06/04 11:10:55;;;;;;;13.73;13.00;;;;;;;;;;4981974;28;20030;-65
2023/06/04 11:13:26;;;;;;;12.15;11.55;;;;;;;;;;4988857;28;20053;-64
2023/06/04 11:15:52;;;;;;;12.70;12.10;;;;;;;;;;4988657;28;20505;-63
2023/06/04 11:18:18;;;;;;;13.35;12.65;;;;;;;;;;4992723;28;20030;-64
2023/06/04 11:20:44;;;;;;;13.48;12.77;;;;;;;;;;4983428;28;20046;-64
2023/06/04 11:23:11;;;;;;;12.10;11.50;;;;;;;;;;4989674;28;20513;-65
2023/06/04 11:25:36;;;;;;;12.93;12.27;;;;;;;;;;4988024;28;20080;-65
2023/06/04 11:28:01;;;;;;;12.98;12.32;;;;;;;;;;4989402;28;20417;-64
2023/06/04 11:30:27;;;;;;;12.45;11.85;;;;;;;;;;4989845;28;20018;-64
2023/06/04 11:33:05;;;;;;;13.18;12.48;;;;;;;;;;4990497;28;20038;-63
2023/06/04 11:35:30;;;;;;;12.40;11.80;;;;;;;;;;4985210;28;20026;-64
2023/06/04 11:37:57;;;;;;;12.50;11.90;;;;;;;;;;4983113;28;20110;-63
2023/06/04 11:40:23;;;;;;;14.70;13.90;;;;;;;;;;4988894;28;20046;-62
2023/06/04 11:42:49;;;;;;;12.20;11.60;;;;;;;;;;4988544;28;20034;-65
2023/06/04 11:45:15;;;;;;;12.40;11.80;;;;;;;;;;4987991;28;20030;-64
2023/06/04 11:47:49;;;;;;;12.40;11.80;;;;;;;;;;4981802;28;20079;-64
2023/06/04 11:50:15;;;;;;;12.55;11.95;;;;;;;;;;4981360;28;20019;-64
2023/06/04 11:52:40;;;;;;;12.30;11.70;;;;;;;;;;4980452;28;20033;-64
2023/06/04 11:55:10;;;;;;;13.07;12.38;;;;;;;;;;4983577;28;20030;-64
2023/06/04 11:57:36;;;;;;;13.07;12.43;;;;;;;;;;4985168;28;20039;-64
2023/06/04 12:00:01;;;;;;;13.40;12.73;;;;;;;;;;4992652;28;20041;-64
2023/06/04 12:02:26;;;;;;;13.20;12.50;;;;;;;;;;4990140;28;20489;-64
2023/06/04 12:04:52;;;;;;;12.70;12.10;;;;;;;;;;4990521;28;20026;-63
2023/06/04 12:07:23;;;;;;;12.63;12.02;;;;;;;;;;4992400;28;20021;-64
2023/06/04 12:09:49;;;;;;;13.02;12.38;;;;;;;;;;4990126;28;20034;-65
2023/06/04 12:12:15;;;;;;;12.70;12.10;;;;;;;;;;4990616;28;20029;-63
2023/06/04 12:14:40;;;;;;;13.02;12.38;;;;;;;;;;4991631;28;20030;-63
2023/06/04 12:17:06;;;;;;;12.27;11.68;;;;;;;;;;4991792;28;20058;-63
2023/06/04 12:19:31;;;;;;;12.52;11.93;;;;;;;;;;4989517;28;20026;-64
2023/06/04 12:22:07;;;;;;;12.43;11.82;;;;;;;;;;4988290;28;20046;-64
2023/06/04 12:24:36;;;;;;;12.60;12.00;;;;;;;;;;4993439;28;20158;-63
2023/06/04 12:27:12;;;;;;;12.63;12.02;;;;;;;;;;4988376;28;20324;-63
2023/06/04 12:29:37;;;;;;;11.75;11.25;;;;;;;;;;4992384;28;20022;-64
2023/06/04 12:32:04;;;;;;;12.32;11.73;;;;;;;;;;4990034;28;20466;-65
2023/06/04 12:34:30;;;;;;;12.27;11.68;;;;;;;;;;4993026;28;20018;-64
2023/06/04 12:36:55;;;;;;;12.40;11.80;;;;;;;;;;4992067;28;20026;-63
2023/06/04 12:39:21;;;;;;;12.50;11.90;;;;;;;;;;4992453;28;20458;-64
2023/06/04 12:41:46;;;;;;;12.52;11.93;;;;;;;;;;4990091;28;20271;-64
2023/06/04 12:44:12;;;;;;;12.60;12.00;;;;;;;;;;4991241;28;20030;-64
2023/06/04 12:46:37;;;;;;;12.52;11.93;;;;;;;;;;4986889;28;20466;-64
2023/06/04 12:49:02;;;;;;;12.07;11.48;;;;;;;;;;4992393;28;20081;-65
2023/06/04 12:51:28;;;;;;;12.57;11.98;;;;;;;;;;4989449;28;20021;-64
2023/06/04 12:53:53;;;;;;;12.93;12.32;;;;;;;;;;4990653;28;20030;-64
2023/06/04 12:56:19;;;;;;;13.27;12.57;;;;;;;;;;4992698;28;20477;-65
2023/06/04 12:58:44;;;;;;;12.65;12.05;;;;;;;;;;4992771;28;20053;-64
2023/06/04 13:01:10;;;;;;;12.60;12.00;;;;;;;;;;4991382;28;20077;-64
2023/06/04 13:03:39;;;;;;;13.15;12.45;;;;;;;;;;4984421;28;20540;-64
2023/06/04 13:06:05;;;;;;;12.95;12.35;;;;;;;;;;4992322;28;20040;-63
2023/06/04 13:08:31;;;;;;;13.50;12.80;;;;;;;;;;4992052;28;20026;-63
2023/06/04 13:10:57;;;;;;;13.00;12.40;;;;;;;;;;4991270;28;20052;-64
2023/06/04 13:13:22;;;;;;;12.60;12.00;;;;;;;;;;4991509;28;20076;-64
2023/06/04 13:15:48;;;;;;;13.07;12.48;;;;;;;;;;4984447;28;20462;-64
2023/06/04 13:18:13;;;;;;;12.43;11.82;;;;;;;;;;4986406;28;20030;-64
2023/06/04 13:20:42;;;;;;;12.50;11.90;;;;;;;;;;4989204;28;20026;-64
2023/06/04 13:23:07;;;;;;;11.50;11.00;;;;;;;;;;4992681;28;20046;-65
2023/06/04 13:25:33;;;;;;;12.00;11.40;;;;;;;;;;4992066;28;20025;-64
2023/06/04 13:28:05;;;;;;;11.75;11.25;;;;;;;;;;4989058;28;20477;-63
2023/06/04 13:30:30;;;;;;;12.57;11.98;;;;;;;;;;4981363;28;20030;-64
2023/06/04 13:32:56;;;;;;;12.60;12.00;;;;;;;;;;4985919;28;20030;-63
2023/06/04 13:35:21;;;;;;;12.00;11.40;;;;;;;;;;4991746;28;20049;-63
2023/06/04 13:37:46;;;;;;;12.23;11.63;;;;;;;;;;4993051;28;20489;-64
2023/06/04 13:40:13;;;;;;;13.48;12.77;;;;;;;;;;4991067;28;20033;-65
2023/06/04 13:42:38;;;;;;;12.82;12.23;;;;;;;;;;4990913;28;20030;-64
2023/06/04 13:45:03;;;;;;;13.15;12.45;;;;;;;;;;4988444;28;20469;-64
2023/06/04 13:47:29;;;;;;;13.13;12.43;;;;;;;;;;4985217;28;20018;-64
2023/06/04 13:49:54;;;;;;;12.95;12.32;;;;;;;;;;4988194;28;20062;-64
2023/06/04 13:52:19;;;;;;;13.60;12.90;;;;;;;;;;4989899;28;20031;-64
2023/06/04 13:54:45;;;;;;;13.50;12.80;;;;;;;;;;4984178;28;20335;-64
2023/06/04 13:57:11;;;;;;;12.40;11.80;;;;;;;;;;4990360;28;20125;-65
2023/06/04 13:59:37;;;;;;;12.80;12.20;;;;;;;;;;4991209;28;20061;-64
2023/06/04 14:02:02;;;;;;;11.35;10.85;;;;;;;;;;4978740;28;20030;-65
2023/06/04 14:04:27;;;;;;;13.07;12.40;;;;;;;;;;4990751;28;20029;-65
2023/06/04 14:06:52;;;;;;;12.68;12.07;;;;;;;;;;4981497;28;20026;-64
2023/06/04 14:09:18;;;;;;;12.88;12.27;;;;;;;;;;4983429;28;20031;-63